Delray Beach, FL

6:39 AM EDT on March 27, 2015 (GMT -0400)
Lake Ida - Garden House | | Change Station
CLOSE
Current Station
Personal Weather Station
Location: Delray Beach, FL
Elevation: 0 ft
Nearby Weather Stations

Elev 0 ft 26.48 °N, 80.07 °W | Updated 9 minutes ago

Clear
Clear
74.5 °F
Feels Like 73 °F
N
0.0
Wind Variable Wind from SW

Today
High -- | Low -- °F
--% Chance of Precip.
Yesterday
High -- | Low -- °F
Precip. -- in
7:16 AM 7:34 PM
Waxing Crescent, 51% visible
Pressure 29.91 in
Visibility 8.0 miles
Clouds Clear
Heat Index 73 °F
Dew Point 71 °F
Humidity 89%
Rainfall 0.00 in
Snow Depth Not available.
UV 0 out of 12
Pollen 7.50 out of 12
Air Quality Not available.
Flu Activity Not available.
METAR KPMP 270953Z AUTO 21006KT 8SM CLR 24/22 A2990 RMK AO2 SLP127 T02440217

More Conditions Fewer Conditions

Pressure 29.91 in
Visibility 8.0 miles
Clouds Clear
Heat Index 73 °F
Dew Point 71 °F
Humidity 89%
Rainfall 0.00 in
Snow Depth Not available.
UV 0 out of 12
Pollen 7.50 out of 12
Air Quality Not available.
Flu Activity Not available.
METAR KPMP 270953Z AUTO 21006KT 8SM CLR 24/22 A2990 RMK AO2 SLP127 T02440217

More Conditions Fewer Conditions

Nowcast | as of 5:49 am EDT on March 27, 2015

at 548 am EDT...Doppler radar indicated a developing thunderstorm 7 miles northwest of North County Airport...or 12 miles southeast of Indiantown...moving northeast at 35 mph. Occasional cloud-to-ground lightning...wind gusts to 35 mph...and torrential downpours can be expected. Locations impacted include... Jupiter...Palm Beach Gardens...Tequesta...North County Airport and Limestone creek.

×

10-Day Weather Forecast

Almanac

Astronomy

Mar. 27, 2015 Rise Set
Actual Time
Civil Twilight
Nautical Twilight
Astronomical Twilight
Moon
Length of Visible Light
Length of Day
Tomorrow will be .
, % of the Moon is Illuminated

Today's Extremes

State Highs State Lows

Community

WunderPhotos

Upload Photos

1,808,706 photos uploaded!

WunderBlogs® & News

Nearby

Air Quality

  Air Quality AQ Index Pollutant
Not available.

Snow Depth

Station Depth Elevation

Earthquake Activity

City Distance Mag. Time & Date
Minimum magnitude displayed is 2.5.

Coastal Water Temperatures

Place Temperature

Stations

Nearby Weather Stations

Station Location Temp. Windchill Dew Point Humidity Wind Precip. Elev Updated Type